sensor_id;sensor_type;location;lat;lon;timestamp;temperature;humidity
66190;DHT22;52992;52.084;5.412;2023-05-20T00:00:06;17.50;42.90
66190;DHT22;52992;52.084;5.412;2023-05-20T00:02:33;17.40;43.10
66190;DHT22;52992;52.084;5.412;2023-05-20T00:05:00;17.40;43.00
66190;DHT22;52992;52.084;5.412;2023-05-20T00:07:28;17.40;43.20
66190;DHT22;52992;52.084;5.412;2023-05-20T00:09:54;17.40;43.20
66190;DHT22;52992;52.084;5.412;2023-05-20T00:12:21;17.30;43.30
66190;DHT22;52992;52.084;5.412;2023-05-20T00:14:48;17.20;43.50
66190;DHT22;52992;52.084;5.412;2023-05-20T00:17:15;17.20;43.70
66190;DHT22;52992;52.084;5.412;2023-05-20T00:19:43;17.10;43.90
66190;DHT22;52992;52.084;5.412;2023-05-20T00:22:10;17.10;44.00
66190;DHT22;52992;52.084;5.412;2023-05-20T00:24:36;17.20;44.10
66190;DHT22;52992;52.084;5.412;2023-05-20T00:27:03;17.10;44.40
66190;DHT22;52992;52.084;5.412;2023-05-20T00:29:30;17.20;44.30
66190;DHT22;52992;52.084;5.412;2023-05-20T00:31:59;17.10;44.20
66190;DHT22;52992;52.084;5.412;2023-05-20T00:34:26;17.10;44.20
66190;DHT22;52992;52.084;5.412;2023-05-20T00:36:53;17.00;44.10
66190;DHT22;52992;52.084;5.412;2023-05-20T00:39:19;16.90;44.40
66190;DHT22;52992;52.084;5.412;2023-05-20T00:41:46;16.90;44.60
66190;DHT22;52992;52.084;5.412;2023-05-20T00:44:13;16.90;44.70
66190;DHT22;52992;52.084;5.412;2023-05-20T00:46:40;16.90;44.80
66190;DHT22;52992;52.084;5.412;2023-05-20T00:49:07;16.90;44.80
66190;DHT22;52992;52.084;5.412;2023-05-20T00:51:34;16.90;44.90
66190;DHT22;52992;52.084;5.412;2023-05-20T00:54:01;16.90;45.00
66190;DHT22;52992;52.084;5.412;2023-05-20T00:56:28;16.90;44.70
66190;DHT22;52992;52.084;5.412;2023-05-20T00:58:56;16.90;44.80
66190;DHT22;52992;52.084;5.412;2023-05-20T01:01:23;16.90;45.00
66190;DHT22;52992;52.084;5.412;2023-05-20T01:03:50;16.80;44.90
66190;DHT22;52992;52.084;5.412;2023-05-20T01:06:17;16.80;45.00
66190;DHT22;52992;52.084;5.412;2023-05-20T01:08:45;16.80;45.00
66190;DHT22;52992;52.084;5.412;2023-05-20T01:11:27;16.70;45.40
66190;DHT22;52992;52.084;5.412;2023-05-20T01:13:57;16.70;45.40
66190;DHT22;52992;52.084;5.412;2023-05-20T01:16:28;16.70;45.40
66190;DHT22;52992;52.084;5.412;2023-05-20T01:18:57;16.70;46.20
66190;DHT22;52992;52.084;5.412;2023-05-20T01:21:29;16.70;45.40
66190;DHT22;52992;52.084;5.412;2023-05-20T01:23:57;16.70;45.50
66190;DHT22;52992;52.084;5.412;2023-05-20T01:26:23;16.70;45.50
66190;DHT22;52992;52.084;5.412;2023-05-20T01:28:53;16.60;45.70
66190;DHT22;52992;52.084;5.412;2023-05-20T01:31:23;16.60;45.80
66190;DHT22;52992;52.084;5.412;2023-05-20T01:33:55;16.60;45.80
66190;DHT22;52992;52.084;5.412;2023-05-20T01:36:24;16.60;45.70
66190;DHT22;52992;52.084;5.412;2023-05-20T01:38:53;16.60;45.60
66190;DHT22;52992;52.084;5.412;2023-05-20T01:41:23;16.60;45.80
66190;DHT22;52992;52.084;5.412;2023-05-20T01:43:52;16.60;45.90
66190;DHT22;52992;52.084;5.412;2023-05-20T01:46:20;16.60;46.10
66190;DHT22;52992;52.084;5.412;2023-05-20T01:48:47;16.60;46.20
66190;DHT22;52992;52.084;5.412;2023-05-20T01:51:14;16.60;46.30
66190;DHT22;52992;52.084;5.412;2023-05-20T01:53:42;16.60;46.20
66190;DHT22;52992;52.084;5.412;2023-05-20T01:56:10;16.70;46.40
66190;DHT22;52992;52.084;5.412;2023-05-20T01:58:36;16.60;46.60
66190;DHT22;52992;52.084;5.412;2023-05-20T02:01:03;16.70;47.00
66190;DHT22;52992;52.084;5.412;2023-05-20T02:03:30;16.70;46.70
66190;DHT22;52992;52.084;5.412;2023-05-20T02:05:58;16.70;46.70
66190;DHT22;52992;52.084;5.412;2023-05-20T02:08:25;16.60;46.80
66190;DHT22;52992;52.084;5.412;2023-05-20T02:10:52;16.70;46.60
66190;DHT22;52992;52.084;5.412;2023-05-20T02:13:19;16.60;46.40
66190;DHT22;52992;52.084;5.412;2023-05-20T02:15:47;16.60;46.30
66190;DHT22;52992;52.084;5.412;2023-05-20T02:18:14;16.60;46.30
66190;DHT22;52992;52.084;5.412;2023-05-20T02:20:44;16.50;46.40
66190;DHT22;52992;52.084;5.412;2023-05-20T02:23:11;16.50;46.60
66190;DHT22;52992;52.084;5.412;2023-05-20T02:25:39;16.50;46.60
66190;DHT22;52992;52.084;5.412;2023-05-20T02:28:09;16.50;46.70
66190;DHT22;52992;52.084;5.412;2023-05-20T02:30:38;16.50;46.70
66190;DHT22;52992;52.084;5.412;2023-05-20T02:33:05;16.50;46.90
66190;DHT22;52992;52.084;5.412;2023-05-20T02:35:32;16.50;46.70
66190;DHT22;52992;52.084;5.412;2023-05-20T02:38:00;16.50;46.70
66190;DHT22;52992;52.084;5.412;2023-05-20T02:40:27;16.50;46.70
66190;DHT22;52992;52.084;5.412;2023-05-20T02:42:54;16.40;46.80
66190;DHT22;52992;52.084;5.412;2023-05-20T02:45:21;16.40;47.00
66190;DHT22;52992;52.084;5.412;2023-05-20T02:47:48;16.40;47.00
66190;DHT22;52992;52.084;5.412;2023-05-20T02:50:15;16.40;47.00
66190;DHT22;52992;52.084;5.412;2023-05-20T02:52:42;16.40;47.10
66190;DHT22;52992;52.084;5.412;2023-05-20T02:55:09;16.40;46.90
66190;DHT22;52992;52.084;5.412;2023-05-20T02:57:37;16.30;47.10
66190;DHT22;52992;52.084;5.412;2023-05-20T03:00:07;16.30;47.30
66190;DHT22;52992;52.084;5.412;2023-05-20T03:02:37;16.40;47.50
66190;DHT22;52992;52.084;5.412;2023-05-20T03:05:05;16.30;47.20
66190;DHT22;52992;52.084;5.412;2023-05-20T03:07:34;16.30;47.20
66190;DHT22;52992;52.084;5.412;2023-05-20T03:10:06;16.20;47.40
66190;DHT22;52992;52.084;5.412;2023-05-20T03:12:33;16.30;47.60
66190;DHT22;52992;52.084;5.412;2023-05-20T03:15:00;16.30;47.50
66190;DHT22;52992;52.084;5.412;2023-05-20T03:17:27;16.30;47.60
66190;DHT22;52992;52.084;5.412;2023-05-20T03:19:55;16.20;47.60
66190;DHT22;52992;52.084;5.412;2023-05-20T03:22:22;16.30;47.70
66190;DHT22;52992;52.084;5.412;2023-05-20T03:24:49;16.30;47.70
66190;DHT22;52992;52.084;5.412;2023-05-20T03:27:19;16.20;47.40
66190;DHT22;52992;52.084;5.412;2023-05-20T03:29:46;16.20;47.30
66190;DHT22;52992;52.084;5.412;2023-05-20T03:32:13;16.20;47.40
66190;DHT22;52992;52.084;5.412;2023-05-20T03:34:40;16.20;47.50
66190;DHT22;52992;52.084;5.412;2023-05-20T03:37:08;16.10;47.60
66190;DHT22;52992;52.084;5.412;2023-05-20T03:39:34;16.10;47.80
66190;DHT22;52992;52.084;5.412;2023-05-20T03:42:01;16.10;47.80
66190;DHT22;52992;52.084;5.412;2023-05-20T03:44:28;16.10;48.00
66190;DHT22;52992;52.084;5.412;2023-05-20T03:46:55;16.10;48.10
66190;DHT22;52992;52.084;5.412;2023-05-20T03:49:22;16.10;48.00
66190;DHT22;52992;52.084;5.412;2023-05-20T03:51:49;16.00;47.90
66190;DHT22;52992;52.084;5.412;2023-05-20T03:54:16;16.00;48.10
66190;DHT22;52992;52.084;5.412;2023-05-20T03:56:47;16.00;48.20
66190;DHT22;52992;52.084;5.412;2023-05-20T03:59:15;16.00;48.30
66190;DHT22;52992;52.084;5.412;2023-05-20T04:01:41;15.90;48.40
66190;DHT22;52992;52.084;5.412;2023-05-20T04:04:09;16.00;48.50
66190;DHT22;52992;52.084;5.412;2023-05-20T04:06:36;16.00;48.50
66190;DHT22;52992;52.084;5.412;2023-05-20T04:09:03;16.00;48.50
66190;DHT22;52992;52.084;5.412;2023-05-20T04:11:30;15.90;48.40
66190;DHT22;52992;52.084;5.412;2023-05-20T04:13:57;15.90;48.40
66190;DHT22;52992;52.084;5.412;2023-05-20T04:16:26;15.90;48.70
66190;DHT22;52992;52.084;5.412;2023-05-20T04:18:55;15.90;48.70
66190;DHT22;52992;52.084;5.412;2023-05-20T04:21:24;16.00;48.60
66190;DHT22;52992;52.084;5.412;2023-05-20T04:23:51;16.10;48.60
66190;DHT22;52992;52.084;5.412;2023-05-20T04:26:18;16.10;48.60
66190;DHT22;52992;52.084;5.412;2023-05-20T04:28:46;16.20;48.60
66190;DHT22;52992;52.084;5.412;2023-05-20T04:31:16;16.20;48.70
66190;DHT22;52992;52.084;5.412;2023-05-20T04:33:44;16.20;48.70
66190;DHT22;52992;52.084;5.412;2023-05-20T04:36:14;16.20;48.70
66190;DHT22;52992;52.084;5.412;2023-05-20T04:38:41;16.30;48.80
66190;DHT22;52992;52.084;5.412;2023-05-20T04:41:10;16.30;48.80
66190;DHT22;52992;52.084;5.412;2023-05-20T04:43:37;16.40;48.60
66190;DHT22;52992;52.084;5.412;2023-05-20T04:46:06;16.30;48.70
66190;DHT22;52992;52.084;5.412;2023-05-20T04:48:33;16.40;48.80
66190;DHT22;52992;52.084;5.412;2023-05-20T04:51:00;16.40;49.00
66190;DHT22;52992;52.084;5.412;2023-05-20T04:53:27;16.50;49.10
66190;DHT22;52992;52.084;5.412;2023-05-20T04:55:56;16.40;48.80
66190;DHT22;52992;52.084;5.412;2023-05-20T04:58:23;16.50;49.00
66190;DHT22;52992;52.084;5.412;2023-05-20T05:00:51;16.50;49.00
66190;DHT22;52992;52.084;5.412;2023-05-20T05:03:18;16.50;49.00
66190;DHT22;52992;52.084;5.412;2023-05-20T05:05:45;16.60;49.10
66190;DHT22;52992;52.084;5.412;2023-05-20T05:08:13;16.60;49.10
66190;DHT22;52992;52.084;5.412;2023-05-20T05:10:46;16.70;49.30
66190;DHT22;52992;52.084;5.412;2023-05-20T05:13:13;16.80;49.20
66190;DHT22;52992;52.084;5.412;2023-05-20T05:15:40;16.80;49.20
66190;DHT22;52992;52.084;5.412;2023-05-20T05:18:07;16.90;49.50
66190;DHT22;52992;52.084;5.412;2023-05-20T05:20:35;16.90;49.20
66190;DHT22;52992;52.084;5.412;2023-05-20T05:23:02;17.00;49.30
66190;DHT22;52992;52.084;5.412;2023-05-20T05:25:29;17.00;49.20
66190;DHT22;52992;52.084;5.412;2023-05-20T05:27:58;17.10;49.20
66190;DHT22;52992;52.084;5.412;2023-05-20T05:30:25;17.20;49.30
66190;DHT22;52992;52.084;5.412;2023-05-20T05:32:52;17.20;49.30
66190;DHT22;52992;52.084;5.412;2023-05-20T05:35:20;17.30;49.00
66190;DHT22;52992;52.084;5.412;2023-05-20T05:37:47;17.30;49.00
66190;DHT22;52992;52.084;5.412;2023-05-20T05:40:14;17.40;49.00
66190;DHT22;52992;52.084;5.412;2023-05-20T05:42:41;17.50;48.60
66190;DHT22;52992;52.084;5.412;2023-05-20T05:45:09;17.40;48.50
66190;DHT22;52992;52.084;5.412;2023-05-20T05:47:36;17.50;48.50
66190;DHT22;52992;52.084;5.412;2023-05-20T05:50:03;17.60;48.40
66190;DHT22;52992;52.084;5.412;2023-05-20T05:52:32;17.60;48.10
66190;DHT22;52992;52.084;5.412;2023-05-20T05:55:01;17.60;48.30
66190;DHT22;52992;52.084;5.412;2023-05-20T05:57:29;17.70;48.50
66190;DHT22;52992;52.084;5.412;2023-05-20T05:59:57;17.80;48.30
66190;DHT22;52992;52.084;5.412;2023-05-20T06:02:25;17.90;48.30
66190;DHT22;52992;52.084;5.412;2023-05-20T06:04:53;18.00;48.30
66190;DHT22;52992;52.084;5.412;2023-05-20T06:07:20;18.10;48.30
66190;DHT22;52992;52.084;5.412;2023-05-20T06:09:47;18.20;48.30
66190;DHT22;52992;52.084;5.412;2023-05-20T06:12:14;18.30;48.00
66190;DHT22;52992;52.084;5.412;2023-05-20T06:14:41;18.40;47.90
66190;DHT22;52992;52.084;5.412;2023-05-20T06:17:07;18.50;47.90
66190;DHT22;52992;52.084;5.412;2023-05-20T06:19:34;18.60;48.50
66190;DHT22;52992;52.084;5.412;2023-05-20T06:22:01;18.80;47.80
66190;DHT22;52992;52.084;5.412;2023-05-20T06:24:29;18.90;47.40
66190;DHT22;52992;52.084;5.412;2023-05-20T06:26:56;19.00;46.60
66190;DHT22;52992;52.084;5.412;2023-05-20T06:29:23;19.00;46.20
66190;DHT22;52992;52.084;5.412;2023-05-20T06:31:49;19.10;45.80
66190;DHT22;52992;52.084;5.412;2023-05-20T06:34:16;19.20;45.90
66190;DHT22;52992;52.084;5.412;2023-05-20T06:36:43;19.30;45.70
66190;DHT22;52992;52.084;5.412;2023-05-20T06:39:10;19.40;45.20
66190;DHT22;52992;52.084;5.412;2023-05-20T06:41:41;19.50;45.00
66190;DHT22;52992;52.084;5.412;2023-05-20T06:44:09;19.60;45.10
66190;DHT22;52992;52.084;5.412;2023-05-20T06:46:51;19.70;45.00
66190;DHT22;52992;52.084;5.412;2023-05-20T06:49:19;19.80;44.70
66190;DHT22;52992;52.084;5.412;2023-05-20T06:51:46;20.00;44.40
66190;DHT22;52992;52.084;5.412;2023-05-20T06:54:13;20.10;44.10
66190;DHT22;52992;52.084;5.412;2023-05-20T06:56:41;20.10;43.80
66190;DHT22;52992;52.084;5.412;2023-05-20T06:59:07;20.20;43.80
66190;DHT22;52992;52.084;5.412;2023-05-20T07:01:35;20.30;43.50
66190;DHT22;52992;52.084;5.412;2023-05-20T07:04:03;20.30;43.00
66190;DHT22;52992;52.084;5.412;2023-05-20T07:06:32;20.40;43.80
66190;DHT22;52992;52.084;5.412;2023-05-20T07:09:00;20.60;43.50
66190;DHT22;52992;52.084;5.412;2023-05-20T07:11:27;20.70;43.30
66190;DHT22;52992;52.084;5.412;2023-05-20T07:13:54;20.80;43.10
66190;DHT22;52992;52.084;5.412;2023-05-20T07:16:23;20.90;42.60
66190;DHT22;52992;52.084;5.412;2023-05-20T07:18:53;20.90;42.10
66190;DHT22;52992;52.084;5.412;2023-05-20T07:21:20;21.00;41.60
66190;DHT22;52992;52.084;5.412;2023-05-20T07:24:09;21.00;41.40
66190;DHT22;52992;52.084;5.412;2023-05-20T07:26:36;21.10;40.80
66190;DHT22;52992;52.084;5.412;2023-05-20T07:29:04;21.20;40.00
66190;DHT22;52992;52.084;5.412;2023-05-20T07:31:31;21.30;39.90
66190;DHT22;52992;52.084;5.412;2023-05-20T07:33:58;21.40;40.50
66190;DHT22;52992;52.084;5.412;2023-05-20T07:36:26;21.50;40.80
66190;DHT22;52992;52.084;5.412;2023-05-20T07:38:54;21.60;41.10
66190;DHT22;52992;52.084;5.412;2023-05-20T07:41:33;21.70;41.30
66190;DHT22;52992;52.084;5.412;2023-05-20T07:44:04;21.70;40.40
66190;DHT22;52992;52.084;5.412;2023-05-20T07:46:33;21.80;39.20
66190;DHT22;52992;52.084;5.412;2023-05-20T07:49:03;21.90;39.60
66190;DHT22;52992;52.084;5.412;2023-05-20T07:51:30;22.00;39.30
66190;DHT22;52992;52.084;5.412;2023-05-20T07:53:57;22.10;39.60
66190;DHT22;52992;52.084;5.412;2023-05-20T07:56:25;22.20;39.50
66190;DHT22;52992;52.084;5.412;2023-05-20T07:58:54;22.40;39.70
66190;DHT22;52992;52.084;5.412;2023-05-20T08:01:24;22.40;37.70
66190;DHT22;52992;52.084;5.412;2023-05-20T08:03:52;22.40;38.20
66190;DHT22;52992;52.084;5.412;2023-05-20T08:06:21;22.50;38.10
66190;DHT22;52992;52.084;5.412;2023-05-20T08:08:50;22.60;37.60
66190;DHT22;52992;52.084;5.412;2023-05-20T08:11:21;22.70;37.80
66190;DHT22;52992;52.084;5.412;2023-05-20T08:13:48;22.80;36.90
66190;DHT22;52992;52.084;5.412;2023-05-20T08:16:16;22.90;37.20
66190;DHT22;52992;52.084;5.412;2023-05-20T08:18:44;23.00;36.20
66190;DHT22;52992;52.084;5.412;2023-05-20T08:21:12;23.00;35.10
66190;DHT22;52992;52.084;5.412;2023-05-20T08:23:39;23.00;34.20
66190;DHT22;52992;52.084;5.412;2023-05-20T08:26:07;23.00;33.90
66190;DHT22;52992;52.084;5.412;2023-05-20T08:28:36;23.00;33.60
66190;DHT22;52992;52.084;5.412;2023-05-20T08:31:04;23.00;33.60
66190;DHT22;52992;52.084;5.412;2023-05-20T08:33:31;23.10;33.90
66190;DHT22;52992;52.084;5.412;2023-05-20T08:35:58;23.20;33.70
66190;DHT22;52992;52.084;5.412;2023-05-20T08:38:27;23.30;33.80
66190;DHT22;52992;52.084;5.412;2023-05-20T08:40:55;23.50;34.90
66190;DHT22;52992;52.084;5.412;2023-05-20T08:43:23;23.60;35.20
66190;DHT22;52992;52.084;5.412;2023-05-20T08:45:51;23.90;34.00
66190;DHT22;52992;52.084;5.412;2023-05-20T08:48:21;24.00;33.40
66190;DHT22;52992;52.084;5.412;2023-05-20T08:50:50;24.10;33.00
66190;DHT22;52992;52.084;5.412;2023-05-20T08:53:21;24.20;33.30
66190;DHT22;52992;52.084;5.412;2023-05-20T08:55:56;24.20;31.80
66190;DHT22;52992;52.084;5.412;2023-05-20T08:58:28;24.20;32.20
66190;DHT22;52992;52.084;5.412;2023-05-20T09:00:55;24.40;33.00
66190;DHT22;52992;52.084;5.412;2023-05-20T09:03:22;24.50;32.80
66190;DHT22;52992;52.084;5.412;2023-05-20T09:05:51;24.70;31.90
66190;DHT22;52992;52.084;5.412;2023-05-20T09:08:22;24.80;31.30
66190;DHT22;52992;52.084;5.412;2023-05-20T09:10:51;25.00;31.20
66190;DHT22;52992;52.084;5.412;2023-05-20T09:13:18;25.00;30.30
66190;DHT22;52992;52.084;5.412;2023-05-20T09:15:47;25.10;30.90
66190;DHT22;52992;52.084;5.412;2023-05-20T09:18:15;25.20;31.10
66190;DHT22;52992;52.084;5.412;2023-05-20T09:20:42;25.30;30.20
66190;DHT22;52992;52.084;5.412;2023-05-20T09:23:11;25.50;29.70
66190;DHT22;52992;52.084;5.412;2023-05-20T09:25:38;25.50;29.80
66190;DHT22;52992;52.084;5.412;2023-05-20T09:28:08;25.50;29.10
66190;DHT22;52992;52.084;5.412;2023-05-20T09:30:35;25.40;29.00
66190;DHT22;52992;52.084;5.412;2023-05-20T09:33:04;25.40;29.10
66190;DHT22;52992;52.084;5.412;2023-05-20T09:35:34;25.40;28.60
66190;DHT22;52992;52.084;5.412;2023-05-20T09:38:04;25.50;28.50
66190;DHT22;52992;52.084;5.412;2023-05-20T09:40:32;25.70;28.70
66190;DHT22;52992;52.084;5.412;2023-05-20T09:43:02;25.90;28.60
66190;DHT22;52992;52.084;5.412;2023-05-20T09:45:29;26.10;28.20
66190;DHT22;52992;52.084;5.412;2023-05-20T09:47:56;26.20;27.70
66190;DHT22;52992;52.084;5.412;2023-05-20T09:50:24;26.30;28.90
66190;DHT22;52992;52.084;5.412;2023-05-20T09:52:52;26.60;27.90
66190;DHT22;52992;52.084;5.412;2023-05-20T09:55:21;26.80;26.60
66190;DHT22;52992;52.084;5.412;2023-05-20T09:57:49;26.90;26.50
66190;DHT22;52992;52.084;5.412;2023-05-20T10:00:16;27.10;27.30
66190;DHT22;52992;52.084;5.412;2023-05-20T10:02:50;27.40;27.40
66190;DHT22;52992;52.084;5.412;2023-05-20T10:05:22;27.50;26.40
66190;DHT22;52992;52.084;5.412;2023-05-20T10:08:11;27.80;27.30
66190;DHT22;52992;52.084;5.412;2023-05-20T10:11:10;28.10;27.10
66190;DHT22;52992;52.084;5.412;2023-05-20T10:19:06;28.00;25.40
66190;DHT22;52992;52.084;5.412;2023-05-20T10:21:34;27.90;26.30
66190;DHT22;52992;52.084;5.412;2023-05-20T10:24:08;28.20;26.40
66190;DHT22;52992;52.084;5.412;2023-05-20T10:26:40;28.60;26.00
66190;DHT22;52992;52.084;5.412;2023-05-20T10:29:14;29.00;24.90
66190;DHT22;52992;52.084;5.412;2023-05-20T10:31:49;29.00;24.40
66190;DHT22;52992;52.084;5.412;2023-05-20T10:34:18;28.60;24.10
66190;DHT22;52992;52.084;5.412;2023-05-20T10:39:26;29.30;24.90
66190;DHT22;52992;52.084;5.412;2023-05-20T10:42:05;29.80;24.00
66190;DHT22;52992;52.084;5.412;2023-05-20T10:44:46;30.30;23.40
66190;DHT22;52992;52.084;5.412;2023-05-20T10:47:13;30.20;23.50
66190;DHT22;52992;52.084;5.412;2023-05-20T10:49:46;30.30;23.60
66190;DHT22;52992;52.084;5.412;2023-05-20T10:52:13;31.00;24.40
66190;DHT22;52992;52.084;5.412;2023-05-20T10:54:46;31.90;23.70
66190;DHT22;52992;52.084;5.412;2023-05-20T10:57:16;32.80;22.50
66190;DHT22;52992;52.084;5.412;2023-05-20T10:59:44;33.10;22.40
66190;DHT22;52992;52.084;5.412;2023-05-20T11:02:15;32.80;22.40
66190;DHT22;52992;52.084;5.412;2023-05-20T11:04:43;32.50;21.90
66190;DHT22;52992;52.084;5.412;2023-05-20T11:07:10;33.00;22.10
66190;DHT22;52992;52.084;5.412;2023-05-20T11:09:38;33.10;20.90
66190;DHT22;52992;52.084;5.412;2023-05-20T11:12:05;32.50;21.40
66190;DHT22;52992;52.084;5.412;2023-05-20T11:14:33;32.90;21.70
66190;DHT22;52992;52.084;5.412;2023-05-20T11:17:00;33.30;21.20
66190;DHT22;52992;52.084;5.412;2023-05-20T11:19:27;33.80;20.90
66190;DHT22;52992;52.084;5.412;2023-05-20T11:21:54;33.30;21.30
66190;DHT22;52992;52.084;5.412;2023-05-20T11:24:24;33.40;21.30
66190;DHT22;52992;52.084;5.412;2023-05-20T11:26:55;33.20;21.70
66190;DHT22;52992;52.084;5.412;2023-05-20T11:29:25;34.20;21.10
66190;DHT22;52992;52.084;5.412;2023-05-20T11:31:52;35.10;21.00
66190;DHT22;52992;52.084;5.412;2023-05-20T11:34:20;35.80;19.50
66190;DHT22;52992;52.084;5.412;2023-05-20T11:36:58;35.70;19.10
66190;DHT22;52992;52.084;5.412;2023-05-20T11:39:28;34.90;19.40
66190;DHT22;52992;52.084;5.412;2023-05-20T11:41:56;35.20;19.60
66190;DHT22;52992;52.084;5.412;2023-05-20T11:44:23;35.70;19.40
66190;DHT22;52992;52.084;5.412;2023-05-20T11:46:50;36.30;19.50
66190;DHT22;52992;52.084;5.412;2023-05-20T11:49:17;36.80;18.30
66190;DHT22;52992;52.084;5.412;2023-05-20T11:51:44;37.20;18.50
66190;DHT22;52992;52.084;5.412;2023-05-20T11:54:11;37.30;18.60
66190;DHT22;52992;52.084;5.412;2023-05-20T11:56:39;36.70;18.80
66190;DHT22;52992;52.084;5.412;2023-05-20T11:59:09;36.20;19.20
66190;DHT22;52992;52.084;5.412;2023-05-20T12:01:38;36.20;19.30
66190;DHT22;52992;52.084;5.412;2023-05-20T12:04:09;36.70;19.20
66190;DHT22;52992;52.084;5.412;2023-05-20T12:06:36;37.20;18.60
66190;DHT22;52992;52.084;5.412;2023-05-20T12:09:05;36.80;18.20
66190;DHT22;52992;52.084;5.412;2023-05-20T12:11:36;36.50;18.40
66190;DHT22;52992;52.084;5.412;2023-05-20T12:14:07;36.60;19.00
66190;DHT22;52992;52.084;5.412;2023-05-20T12:16:35;36.50;18.50
66190;DHT22;52992;52.084;5.412;2023-05-20T12:19:02;35.40;18.60
66190;DHT22;52992;52.084;5.412;2023-05-20T12:21:30;34.20;20.20
66190;DHT22;52992;52.084;5.412;2023-05-20T12:24:00;34.60;20.20
66190;DHT22;52992;52.084;5.412;2023-05-20T12:26:28;35.60;18.90
66190;DHT22;52992;52.084;5.412;2023-05-20T12:28:56;35.70;19.20
66190;DHT22;52992;52.084;5.412;2023-05-20T12:31:24;34.90;19.60
66190;DHT22;52992;52.084;5.412;2023-05-20T12:33:51;33.30;20.90
66190;DHT22;52992;52.084;5.412;2023-05-20T12:36:18;32.60;21.00
66190;DHT22;52992;52.084;5.412;2023-05-20T12:38:45;32.20;21.90
66190;DHT22;52992;52.084;5.412;2023-05-20T12:41:12;32.10;22.30
66190;DHT22;52992;52.084;5.412;2023-05-20T12:43:39;32.30;22.30
66190;DHT22;52992;52.084;5.412;2023-05-20T12:46:06;31.60;22.80
66190;DHT22;52992;52.084;5.412;2023-05-20T12:48:33;30.60;23.30
66190;DHT22;52992;52.084;5.412;2023-05-20T12:51:00;29.80;24.00
66190;DHT22;52992;52.084;5.412;2023-05-20T12:53:27;29.40;24.70
66190;DHT22;52992;52.084;5.412;2023-05-20T12:55:54;29.00;25.00
66190;DHT22;52992;52.084;5.412;2023-05-20T12:58:21;28.50;25.40
66190;DHT22;52992;52.084;5.412;2023-05-20T13:00:48;27.90;25.40
66190;DHT22;52992;52.084;5.412;2023-05-20T13:03:15;27.50;25.90
66190;DHT22;52992;52.084;5.412;2023-05-20T13:05:42;27.00;26.10
66190;DHT22;52992;52.084;5.412;2023-05-20T13:08:09;26.80;26.60
66190;DHT22;52992;52.084;5.412;2023-05-20T13:10:38;26.70;27.00
66190;DHT22;52992;52.084;5.412;2023-05-20T13:13:05;26.80;27.10
66190;DHT22;52992;52.084;5.412;2023-05-20T13:15:32;26.90;27.00
66190;DHT22;52992;52.084;5.412;2023-05-20T13:17:59;27.00;27.20
66190;DHT22;52992;52.084;5.412;2023-05-20T13:20:28;27.20;27.20
66190;DHT22;52992;52.084;5.412;2023-05-20T13:22:55;27.30;27.30
66190;DHT22;52992;52.084;5.412;2023-05-20T13:25:22;27.60;27.20
66190;DHT22;52992;52.084;5.412;2023-05-20T13:27:49;28.10;27.10
66190;DHT22;52992;52.084;5.412;2023-05-20T13:30:16;28.40;26.20
66190;DHT22;52992;52.084;5.412;2023-05-20T13:32:43;28.30;26.20
66190;DHT22;52992;52.084;5.412;2023-05-20T13:35:10;28.10;26.60
66190;DHT22;52992;52.084;5.412;2023-05-20T13:37:38;28.00;26.00
66190;DHT22;52992;52.084;5.412;2023-05-20T13:40:05;27.90;26.50
66190;DHT22;52992;52.084;5.412;2023-05-20T13:42:33;27.80;26.50
66190;DHT22;52992;52.084;5.412;2023-05-20T13:45:00;27.60;26.90
66190;DHT22;52992;52.084;5.412;2023-05-20T13:47:26;27.50;27.30
66190;DHT22;52992;52.084;5.412;2023-05-20T13:49:54;27.40;27.20
66190;DHT22;52992;52.084;5.412;2023-05-20T13:52:21;27.30;27.30
66190;DHT22;52992;52.084;5.412;2023-05-20T13:54:48;27.20;27.60
66190;DHT22;52992;52.084;5.412;2023-05-20T13:57:15;27.20;27.90
66190;DHT22;52992;52.084;5.412;2023-05-20T13:59:42;27.20;28.20
66190;DHT22;52992;52.084;5.412;2023-05-20T14:02:09;27.20;28.10
66190;DHT22;52992;52.084;5.412;2023-05-20T14:04:36;27.20;28.40
66190;DHT22;52992;52.084;5.412;2023-05-20T14:07:05;27.10;28.50
66190;DHT22;52992;52.084;5.412;2023-05-20T14:09:35;27.10;28.70
66190;DHT22;52992;52.084;5.412;2023-05-20T14:12:02;27.20;28.60
66190;DHT22;52992;52.084;5.412;2023-05-20T14:14:29;27.20;28.00
66190;DHT22;52992;52.084;5.412;2023-05-20T14:16:56;27.30;28.50
66190;DHT22;52992;52.084;5.412;2023-05-20T14:19:24;27.30;27.70
66190;DHT22;52992;52.084;5.412;2023-05-20T14:21:51;27.30;28.30
66190;DHT22;52992;52.084;5.412;2023-05-20T14:24:18;27.20;28.30
66190;DHT22;52992;52.084;5.412;2023-05-20T14:26:48;27.20;28.90
66190;DHT22;52992;52.084;5.412;2023-05-20T14:29:15;27.20;29.00
66190;DHT22;52992;52.084;5.412;2023-05-20T14:31:42;27.20;28.00
66190;DHT22;52992;52.084;5.412;2023-05-20T14:34:09;27.20;28.70
66190;DHT22;52992;52.084;5.412;2023-05-20T14:36:36;27.20;28.70
66190;DHT22;52992;52.084;5.412;2023-05-20T14:39:03;27.00;28.60
66190;DHT22;52992;52.084;5.412;2023-05-20T14:41:30;26.90;28.10
66190;DHT22;52992;52.084;5.412;2023-05-20T14:43:57;26.90;28.30
66190;DHT22;52992;52.084;5.412;2023-05-20T14:46:25;26.90;28.20
66190;DHT22;52992;52.084;5.412;2023-05-20T14:48:52;27.00;28.60
66190;DHT22;52992;52.084;5.412;2023-05-20T14:51:19;27.00;28.90
66190;DHT22;52992;52.084;5.412;2023-05-20T14:53:46;27.00;29.20
66190;DHT22;52992;52.084;5.412;2023-05-20T14:56:13;27.00;28.90
66190;DHT22;52992;52.084;5.412;2023-05-20T14:58:39;27.00;29.20
66190;DHT22;52992;52.084;5.412;2023-05-20T15:01:06;26.90;28.90
66190;DHT22;52992;52.084;5.412;2023-05-20T15:03:33;26.70;28.00
66190;DHT22;52992;52.084;5.412;2023-05-20T15:06:00;26.50;28.40
66190;DHT22;52992;52.084;5.412;2023-05-20T15:08:27;26.40;28.50
66190;DHT22;52992;52.084;5.412;2023-05-20T15:10:54;26.20;28.20
66190;DHT22;52992;52.084;5.412;2023-05-20T15:13:21;26.10;28.50
66190;DHT22;52992;52.084;5.412;2023-05-20T15:15:48;26.10;28.90
66190;DHT22;52992;52.084;5.412;2023-05-20T15:18:15;26.20;28.80
66190;DHT22;52992;52.084;5.412;2023-05-20T15:20:42;26.30;28.80
66190;DHT22;52992;52.084;5.412;2023-05-20T15:23:09;26.20;29.00
66190;DHT22;52992;52.084;5.412;2023-05-20T15:25:36;26.30;29.10
66190;DHT22;52992;52.084;5.412;2023-05-20T15:28:03;26.20;29.00
66190;DHT22;52992;52.084;5.412;2023-05-20T15:30:30;26.10;29.30
66190;DHT22;52992;52.084;5.412;2023-05-20T15:32:57;26.00;29.00
66190;DHT22;52992;52.084;5.412;2023-05-20T15:35:24;25.90;28.60
66190;DHT22;52992;52.084;5.412;2023-05-20T15:37:51;25.80;28.80
66190;DHT22;52992;52.084;5.412;2023-05-20T15:40:18;25.80;29.30
66190;DHT22;52992;52.084;5.412;2023-05-20T15:42:45;25.80;29.20